Time;durP1;ratioP1;P1;durP2;ratioP2;P2;SDS_P1;SDS_P2;PMS_P1;PMS_P2;Temp;Humidity;BMP_temperature;BMP_pressure;BME280_temperature;BME280_humidity;BME280_pressure;Samples;Min_cycle;Max_cycle;Signal;HPM_P1;HPM_P2
2023/11/14 00:00:26;;;;;;;99.82;5.90;;;8.20;99.90;;;;;;5051427;28;20113;-82
2023/11/14 00:02:51;;;;;;;64.18;3.75;;;8.20;99.90;;;;;;5036181;28;20688;-82
2023/11/14 00:05:17;;;;;;;27.90;2.25;;;8.10;99.90;;;;;;5037596;28;20372;-83
2023/11/14 00:07:43;;;;;;;37.95;1.85;;;8.10;99.90;;;;;;5036880;28;20033;-83
2023/11/14 00:10:09;;;;;;;11.15;1.55;;;8.10;99.90;;;;;;5020979;28;20033;-83
2023/11/14 00:12:37;;;;;;;18.45;1.42;;;8.10;99.90;;;;;;5039057;28;20068;-82
2023/11/14 00:15:03;;;;;;;15.88;2.05;;;8.10;99.90;;;;;;5040864;28;20056;-82
2023/11/14 00:17:29;;;;;;;47.20;5.47;;;8.00;99.90;;;;;;5044344;28;20046;-81
2023/11/14 00:19:55;;;;;;;69.40;5.75;;;8.00;99.90;;;;;;5014963;28;20026;-83
2023/11/14 00:22:21;;;;;;;38.97;2.47;;;8.00;99.90;;;;;;5038996;28;20387;-83
2023/11/14 00:24:50;;;;;;;11.45;1.20;;;7.90;99.90;;;;;;5048892;28;20037;-81
2023/11/14 00:27:17;;;;;;;13.15;1.10;;;7.90;99.90;;;;;;5038176;28;20033;-81
2023/11/14 00:29:43;;;;;;;6.40;1.25;;;7.90;99.90;;;;;;5036582;28;20068;-84
2023/11/14 00:33:00;;;;;;;7.15;1.10;;;7.90;99.90;;;;;;5033830;28;20041;-83
2023/11/14 00:35:26;;;;;;;42.92;2.72;;;7.90;99.90;;;;;;5026924;28;20065;-82
2023/11/14 00:37:53;;;;;;;7.10;1.10;;;7.80;99.90;;;;;;5030137;28;20087;-83
2023/11/14 00:40:21;;;;;;;13.90;1.33;;;7.80;99.90;;;;;;5027881;28;20384;-82
2023/11/14 00:42:48;;;;;;;3.75;1.00;;;7.80;99.90;;;;;;5030843;28;20044;-81
2023/11/14 00:45:14;;;;;;;7.55;1.17;;;7.80;99.90;;;;;;5046728;28;20040;-82
2023/11/14 00:47:40;;;;;;;13.18;1.25;;;7.80;99.90;;;;;;5029861;28;20038;-82
2023/11/14 00:50:07;;;;;;;11.23;1.63;;;7.80;99.90;;;;;;5013876;28;20103;-83
2023/11/14 00:52:33;;;;;;;6.68;1.40;;;7.80;99.90;;;;;;4992113;28;20404;-82
2023/11/14 00:54:59;;;;;;;9.07;1.30;;;7.80;99.90;;;;;;5026902;28;20026;-82
2023/11/14 00:57:25;;;;;;;11.30;1.60;;;7.70;99.90;;;;;;5030647;28;20021;-82
2023/11/14 00:59:51;;;;;;;11.15;1.40;;;7.70;99.90;;;;;;5031829;28;20505;-83
2023/11/14 01:02:16;;;;;;;15.30;2.63;;;7.70;99.90;;;;;;5026024;28;20557;-82
2023/11/14 01:04:42;;;;;;;9.80;1.33;;;7.60;99.90;;;;;;5024517;28;20554;-82
2023/11/14 01:07:09;;;;;;;6.60;1.27;;;7.60;99.90;;;;;;5028031;28;20065;-83
2023/11/14 01:09:35;;;;;;;13.32;1.50;;;7.60;99.90;;;;;;5040768;28;20029;-82
2023/11/14 01:12:02;;;;;;;14.38;2.15;;;7.50;99.90;;;;;;5021498;28;20526;-83
2023/11/14 01:14:29;;;;;;;9.43;1.75;;;7.40;99.90;;;;;;5027497;28;20037;-81
2023/11/14 01:16:55;;;;;;;9.52;1.40;;;7.40;99.90;;;;;;5029132;28;20025;-83
2023/11/14 01:19:40;;;;;;;11.52;1.48;;;7.40;99.90;;;;;;5013374;28;20053;-83
2023/11/14 01:22:06;;;;;;;10.50;1.00;;;7.30;99.90;;;;;;5025836;28;20096;-82
2023/11/14 01:24:32;;;;;;;19.77;1.80;;;7.30;99.90;;;;;;5029157;28;20289;-83
2023/11/14 01:26:58;;;;;;;23.63;1.35;;;7.20;99.90;;;;;;5011481;28;20113;-83
2023/11/14 01:29:24;;;;;;;7.03;1.90;;;7.20;99.90;;;;;;5010473;28;20057;-82
2023/11/14 01:31:50;;;;;;;59.05;2.47;;;7.20;99.90;;;;;;5025807;28;20099;-82
2023/11/14 01:34:16;;;;;;;50.40;2.13;;;7.20;99.90;;;;;;5043368;28;20033;-83
2023/11/14 01:36:42;;;;;;;26.63;2.15;;;7.20;99.90;;;;;;5032770;28;20029;-82
2023/11/14 01:39:08;;;;;;;13.73;1.45;;;7.20;99.90;;;;;;5031971;28;20057;-82
2023/11/14 01:41:34;;;;;;;17.48;1.40;;;7.20;99.90;;;;;;5027122;28;20049;-82
2023/11/14 01:43:59;;;;;;;61.80;3.90;;;7.20;99.90;;;;;;5033530;28;20049;-83
2023/11/14 01:46:26;;;;;;;55.10;3.58;;;7.20;99.90;;;;;;5027407;28;20032;-82
2023/11/14 01:48:52;;;;;;;58.45;2.97;;;7.20;99.90;;;;;;5000005;28;20037;-82
2023/11/14 01:51:20;;;;;;;19.25;1.70;;;7.30;99.90;;;;;;5011996;28;20022;-82
2023/11/14 01:53:48;;;;;;;49.78;3.67;;;7.20;99.90;;;;;;5042855;28;20078;-82
2023/11/14 01:56:15;;;;;;;34.70;1.92;;;7.30;99.90;;;;;;5014556;28;20030;-81
2023/11/14 01:58:42;;;;;;;21.00;1.83;;;7.40;99.90;;;;;;5013227;28;20118;-82
2023/11/14 02:01:08;;;;;;;22.17;2.22;;;7.30;99.90;;;;;;5033505;28;20033;-82
2023/11/14 02:03:35;;;;;;;24.35;1.88;;;7.40;99.90;;;;;;5044845;28;20499;-82
2023/11/14 02:06:01;;;;;;;61.97;3.60;;;7.40;99.90;;;;;;5029682;28;20038;-82
2023/11/14 02:08:31;;;;;;;42.13;2.78;;;7.40;99.90;;;;;;5028055;28;20058;-82
2023/11/14 02:10:57;;;;;;;21.63;2.00;;;7.50;99.90;;;;;;5030762;28;20022;-83
2023/11/14 02:13:23;;;;;;;39.30;2.55;;;7.50;99.90;;;;;;5028531;28;20026;-81
2023/11/14 02:15:49;;;;;;;155.23;8.57;;;7.50;99.90;;;;;;5030336;28;20681;-81
2023/11/14 02:18:18;;;;;;;118.35;6.75;;;7.50;99.90;;;;;;5027065;28;20036;-82
2023/11/14 02:20:45;;;;;;;35.38;3.50;;;7.50;99.90;;;;;;5029071;28;20057;-83
2023/11/14 02:23:15;;;;;;;20.25;1.92;;;7.60;99.90;;;;;;5033052;28;20044;-82
2023/11/14 02:25:42;;;;;;;11.85;1.60;;;7.60;99.90;;;;;;5049516;28;20033;-83
2023/11/14 02:28:09;;;;;;;15.55;2.03;;;7.60;99.90;;;;;;5035787;28;20033;-82
2023/11/14 02:30:36;;;;;;;19.83;1.90;;;7.60;99.90;;;;;;5023136;28;20091;-83
2023/11/14 02:33:06;;;;;;;14.95;1.80;;;7.60;99.90;;;;;;5032541;28;20057;-81
2023/11/14 02:35:32;;;;;;;15.38;2.22;;;7.50;99.90;;;;;;5022981;28;20029;-82
2023/11/14 02:37:58;;;;;;;9.32;2.22;;;7.60;99.90;;;;;;5032444;28;20033;-83
2023/11/14 02:40:24;;;;;;;13.52;1.88;;;7.60;99.90;;;;;;5015107;28;20653;-82
2023/11/14 02:42:51;;;;;;;18.05;1.88;;;7.60;99.90;;;;;;5029073;28;20041;-82
2023/11/14 02:45:16;;;;;;;14.23;1.63;;;7.70;99.90;;;;;;5013576;28;20084;-83
2023/11/14 02:47:42;;;;;;;9.07;1.73;;;7.60;99.90;;;;;;5033479;28;20116;-82
2023/11/14 02:50:48;;;;;;;5.22;1.25;;;7.70;99.90;;;;;;5034951;28;20025;-82
2023/11/14 02:53:14;;;;;;;14.18;1.58;;;7.70;99.90;;;;;;5038255;28;20018;-82
2023/11/14 02:56:00;;;;;;;14.32;2.00;;;7.70;99.90;;;;;;5033605;28;20503;-83
2023/11/14 02:58:26;;;;;;;12.77;1.50;;;7.70;99.90;;;;;;5023060;28;20025;-82
2023/11/14 03:00:52;;;;;;;12.32;1.75;;;7.70;99.90;;;;;;5035311;28;20052;-82
2023/11/14 03:03:21;;;;;;;8.75;1.75;;;7.70;99.90;;;;;;5036704;28;20021;-80
2023/11/14 03:05:47;;;;;;;16.35;2.40;;;7.70;99.90;;;;;;5027721;28;20030;-81
2023/11/14 03:08:13;;;;;;;11.63;2.50;;;7.80;99.90;;;;;;5035923;28;20099;-81
2023/11/14 03:10:39;;;;;;;12.02;2.20;;;7.70;99.90;;;;;;5017337;28;20033;-82
2023/11/14 03:13:08;;;;;;;23.73;2.00;;;7.80;99.90;;;;;;5027654;28;20859;-82
2023/11/14 03:15:43;;;;;;;9.55;1.67;;;7.80;99.90;;;;;;5021642;28;20038;-81
2023/11/14 03:18:09;;;;;;;11.30;1.85;;;7.80;99.90;;;;;;5031012;28;20067;-82
2023/11/14 03:20:35;;;;;;;15.80;1.95;;;7.80;99.90;;;;;;5036918;28;20071;-82
2023/11/14 03:23:02;;;;;;;15.45;1.83;;;7.80;99.90;;;;;;5018141;28;20446;-81
2023/11/14 03:25:28;;;;;;;13.40;3.50;;;7.80;99.90;;;;;;5045927;28;20034;-81
2023/11/14 03:27:53;;;;;;;14.75;1.80;;;7.80;99.90;;;;;;5035645;28;20513;-82
2023/11/14 03:30:29;;;;;;;13.27;1.52;;;7.80;99.90;;;;;;5045712;28;20104;-81
2023/11/14 03:32:59;;;;;;;11.05;1.55;;;7.80;99.90;;;;;;5014530;28;20026;-82
2023/11/14 03:35:26;;;;;;;17.17;1.65;;;7.80;99.90;;;;;;5046346;28;20022;-81
2023/11/14 03:37:58;;;;;;;13.93;2.25;;;7.80;99.90;;;;;;5018364;28;20160;-82
2023/11/14 03:41:01;;;;;;;11.48;1.77;;;7.80;99.90;;;;;;5029242;28;20083;-81
2023/11/14 03:43:26;;;;;;;13.98;1.80;;;7.80;99.90;;;;;;5020369;28;20038;-81
2023/11/14 03:45:52;;;;;;;17.80;2.03;;;7.80;99.90;;;;;;5020712;28;20029;-81
2023/11/14 03:48:21;;;;;;;16.98;2.10;;;7.80;99.90;;;;;;5033761;28;20033;-80
2023/11/14 03:50:47;;;;;;;9.77;1.80;;;7.80;99.90;;;;;;5027664;28;20029;-82
2023/11/14 03:53:14;;;;;;;16.92;2.13;;;7.80;99.90;;;;;;5035282;28;20022;-80
2023/11/14 03:55:39;;;;;;;13.98;2.25;;;7.80;99.90;;;;;;5041651;28;20038;-82
2023/11/14 03:58:06;;;;;;;11.15;1.75;;;7.80;99.90;;;;;;5017999;28;20268;-82
2023/11/14 04:00:58;;;;;;;10.02;2.13;;;7.80;99.90;;;;;;5035076;28;20037;-80
2023/11/14 04:03:24;;;;;;;14.18;1.88;;;7.80;99.90;;;;;;5047518;28;20026;-82
2023/11/14 04:05:50;;;;;;;14.45;1.95;;;7.80;99.90;;;;;;5048029;28;20095;-82
2023/11/14 04:08:16;;;;;;;15.20;2.58;;;7.80;99.90;;;;;;5037094;28;20038;-81
2023/11/14 04:10:53;;;;;;;13.10;1.85;;;7.70;99.90;;;;;;5036286;28;20342;-81
2023/11/14 04:13:21;;;;;;;10.68;1.70;;;7.70;99.90;;;;;;5036112;28;20087;-82
2023/11/14 04:15:48;;;;;;;16.63;1.90;;;7.80;99.90;;;;;;5032434;28;20030;-81
2023/11/14 04:18:19;;;;;;;6.45;1.42;;;7.80;99.90;;;;;;5032574;28;20438;-81
2023/11/14 04:20:46;;;;;;;9.23;2.00;;;7.80;99.90;;;;;;5049140;28;20060;-81
2023/11/14 04:23:12;;;;;;;21.25;2.65;;;7.80;99.90;;;;;;5034187;28;20386;-81
2023/11/14 04:25:37;;;;;;;12.52;2.15;;;7.70;99.90;;;;;;5033897;28;20048;-82
2023/11/14 04:28:03;;;;;;;17.02;2.72;;;7.70;99.90;;;;;;5038120;28;20704;-82
2023/11/14 04:30:32;;;;;;;12.57;1.83;;;7.70;99.90;;;;;;5031136;28;20014;-80
2023/11/14 04:32:59;;;;;;;20.75;1.90;;;7.70;99.90;;;;;;5020215;28;20037;-83
2023/11/14 04:35:39;;;;;;;17.42;2.22;;;7.70;99.90;;;;;;5030542;28;20156;-82
2023/11/14 04:38:05;;;;;;;16.92;2.75;;;7.70;99.90;;;;;;5034528;28;20029;-83
2023/11/14 04:40:31;;;;;;;15.70;2.30;;;7.70;99.90;;;;;;5028326;28;20037;-82
2023/11/14 04:43:05;;;;;;;12.73;2.13;;;7.70;99.90;;;;;;5029591;28;20502;-81
2023/11/14 04:45:40;;;;;;;14.35;1.80;;;7.70;99.90;;;;;;5046696;28;20063;-83
2023/11/14 04:48:06;;;;;;;19.10;2.08;;;7.70;99.90;;;;;;5014274;28;20061;-82
2023/11/14 04:50:35;;;;;;;10.70;2.13;;;7.70;99.90;;;;;;5031016;28;20045;-83
2023/11/14 04:53:00;;;;;;;15.73;2.25;;;7.70;99.90;;;;;;5016298;28;20072;-82
2023/11/14 04:55:32;;;;;;;12.38;1.92;;;7.70;99.90;;;;;;5024996;28;20030;-83
2023/11/14 04:58:04;;;;;;;15.10;2.15;;;7.70;99.90;;;;;;5038531;28;20733;-83
2023/11/14 05:00:30;;;;;;;16.95;1.98;;;7.70;99.90;;;;;;5031201;28;20041;-83
2023/11/14 05:02:56;;;;;;;22.52;2.05;;;7.70;99.90;;;;;;5014871;28;20037;-82
2023/11/14 05:05:33;;;;;;;11.18;2.08;;;7.70;99.90;;;;;;5028165;28;20045;-80
2023/11/14 05:07:58;;;;;;;15.15;2.88;;;7.70;99.90;;;;;;5017960;28;20053;-82
2023/11/14 05:10:47;;;;;;;11.43;2.08;;;7.60;99.90;;;;;;5050282;28;20026;-82
2023/11/14 05:13:26;;;;;;;15.73;1.77;;;7.70;99.90;;;;;;5035456;28;20033;-85
2023/11/14 05:16:02;;;;;;;11.85;2.00;;;7.60;99.90;;;;;;5028192;28;20033;-81
2023/11/14 05:18:27;;;;;;;18.45;2.00;;;7.60;99.90;;;;;;5044050;28;20038;-82
2023/11/14 05:20:53;;;;;;;12.02;2.58;;;7.60;99.90;;;;;;5034395;28;20119;-81
2023/11/14 05:23:19;;;;;;;12.40;1.88;;;7.60;99.90;;;;;;5037210;28;20056;-81
2023/11/14 05:25:45;;;;;;;14.70;1.65;;;7.60;99.90;;;;;;5035193;28;20033;-82
2023/11/14 05:28:29;;;;;;;13.98;2.22;;;7.60;99.90;;;;;;5033675;28;20064;-80
2023/11/14 05:30:55;;;;;;;17.65;2.20;;;7.60;99.90;;;;;;5019568;28;20034;-81
2023/11/14 05:33:21;;;;;;;14.82;2.28;;;7.60;99.90;;;;;;5018535;28;20038;-80
2023/11/14 05:35:47;;;;;;;12.05;2.03;;;7.60;99.90;;;;;;5020236;28;20491;-80
2023/11/14 05:38:14;;;;;;;7.30;1.40;;;7.60;99.90;;;;;;5031379;28;20033;-82
2023/11/14 05:40:40;;;;;;;18.35;2.33;;;7.60;99.90;;;;;;5017424;28;20097;-81
2023/11/14 05:43:07;;;;;;;20.00;1.60;;;7.50;99.90;;;;;;5047701;28;20514;-81
2023/11/14 05:45:32;;;;;;;11.32;1.88;;;7.60;99.90;;;;;;5032839;28;20057;-81
2023/11/14 05:47:58;;;;;;;10.60;2.05;;;7.50;99.90;;;;;;5060797;28;20013;-83
2023/11/14 05:50:24;;;;;;;17.15;2.35;;;7.50;99.90;;;;;;5051674;28;20468;-83
2023/11/14 05:52:50;;;;;;;21.23;2.47;;;7.50;99.90;;;;;;5049522;28;20033;-82
2023/11/14 05:55:16;;;;;;;16.83;1.80;;;7.50;99.90;;;;;;5016335;28;20034;-84
2023/11/14 05:57:42;;;;;;;10.90;1.75;;;7.50;99.90;;;;;;5064512;28;20056;-82
2023/11/14 06:00:11;;;;;;;11.27;1.75;;;7.50;99.90;;;;;;5044794;28;20036;-83
2023/11/14 06:02:39;;;;;;;16.75;2.00;;;7.50;99.90;;;;;;5046496;28;20053;-81
2023/11/14 06:05:05;;;;;;;18.60;3.25;;;7.40;99.90;;;;;;5047634;28;20029;-83
2023/11/14 06:07:32;;;;;;;16.38;2.10;;;7.40;99.90;;;;;;5039057;28;20034;-83
2023/11/14 06:09:57;;;;;;;16.25;2.22;;;7.40;99.90;;;;;;5038256;28;20028;-82
2023/11/14 06:12:23;;;;;;;13.55;1.60;;;7.40;99.90;;;;;;5041140;28;20057;-84
2023/11/14 06:14:49;;;;;;;11.25;2.10;;;7.40;99.90;;;;;;5026793;28;20022;-83
2023/11/14 06:17:15;;;;;;;11.90;2.10;;;7.40;99.90;;;;;;5028718;28;20049;-83
2023/11/14 06:19:40;;;;;;;10.07;1.85;;;7.40;99.90;;;;;;5043908;28;20083;-81
2023/11/14 06:22:06;;;;;;;18.08;2.63;;;7.40;99.90;;;;;;5041901;28;20035;-83
2023/11/14 06:24:32;;;;;;;18.98;2.03;;;7.40;99.90;;;;;;5039550;28;20128;-82
2023/11/14 06:26:57;;;;;;;22.92;2.58;;;7.40;99.90;;;;;;5039903;28;20479;-81
2023/11/14 06:29:24;;;;;;;24.05;2.47;;;7.40;99.90;;;;;;5028046;28;20105;-79
2023/11/14 06:31:50;;;;;;;12.27;2.10;;;7.40;99.90;;;;;;5033764;28;20118;-81
2023/11/14 06:34:16;;;;;;;8.20;1.75;;;7.40;99.90;;;;;;5033169;28;20116;-80
2023/11/14 06:36:42;;;;;;;21.05;2.50;;;7.40;99.90;;;;;;5030498;28;20037;-81
2023/11/14 06:39:07;;;;;;;15.90;2.67;;;7.40;99.90;;;;;;5015399;28;20132;-84
2023/11/14 06:41:33;;;;;;;13.38;1.92;;;7.40;99.90;;;;;;5046571;28;20117;-82
2023/11/14 06:43:59;;;;;;;17.27;2.38;;;7.30;99.90;;;;;;5015398;28;20049;-81
2023/11/14 06:46:25;;;;;;;14.45;2.30;;;7.30;99.90;;;;;;5029007;28;20087;-81
2023/11/14 06:48:50;;;;;;;16.77;2.53;;;7.30;99.90;;;;;;5031868;28;20123;-82
2023/11/14 06:51:16;;;;;;;20.90;2.35;;;7.40;99.90;;;;;;5049809;28;20125;-82
2023/11/14 06:53:42;;;;;;;17.65;2.30;;;7.30;99.90;;;;;;5033233;28;20034;-83
2023/11/14 06:56:12;;;;;;;16.67;2.08;;;7.30;99.90;;;;;;5009383;28;20670;-83
2023/11/14 06:58:40;;;;;;;18.45;2.47;;;7.30;99.90;;;;;;5031796;28;20033;-82
2023/11/14 07:01:07;;;;;;;12.48;1.80;;;7.30;99.90;;;;;;5015621;28;20503;-81
2023/11/14 07:03:33;;;;;;;15.10;2.20;;;7.30;99.90;;;;;;5034715;28;20034;-81
2023/11/14 07:05:58;;;;;;;16.45;2.17;;;7.30;99.90;;;;;;4999219;28;20076;-81
2023/11/14 07:08:24;;;;;;;12.80;1.67;;;7.30;99.90;;;;;;5031721;28;20033;-82
2023/11/14 07:10:50;;;;;;;17.33;2.33;;;7.30;99.90;;;;;;5014406;28;20037;-83
2023/11/14 07:13:17;;;;;;;16.67;2.22;;;7.20;99.90;;;;;;5023917;28;20518;-84
2023/11/14 07:15:43;;;;;;;16.35;2.60;;;7.30;99.90;;;;;;5015892;28;20109;-82
2023/11/14 07:18:12;;;;;;;17.25;2.47;;;7.30;99.90;;;;;;5027508;28;20029;-81
2023/11/14 07:20:37;;;;;;;15.50;1.92;;;7.30;99.90;;;;;;5005686;28;20038;-82
2023/11/14 07:23:06;;;;;;;17.23;2.70;;;7.30;99.90;;;;;;5039588;28;20037;-81
2023/11/14 07:25:50;;;;;;;16.60;2.25;;;7.30;99.90;;;;;;5018267;28;20040;-82
2023/11/14 07:28:16;;;;;;;10.98;1.75;;;7.40;99.90;;;;;;5143120;23;20049;-82
2023/11/14 07:30:42;;;;;;;16.42;2.17;;;7.30;99.90;;;;;;5037862;28;20086;-82
2023/11/14 07:33:08;;;;;;;13.18;1.80;;;7.30;99.90;;;;;;5046563;28;20395;-81
2023/11/14 07:35:37;;;;;;;18.05;2.85;;;7.30;99.90;;;;;;5040715;28;20066;-81
2023/11/14 07:38:04;;;;;;;22.95;2.45;;;7.40;99.90;;;;;;5019359;28;20029;-81
2023/11/14 07:40:32;;;;;;;13.35;2.00;;;7.40;99.90;;;;;;5054589;28;20033;-81
2023/11/14 07:43:00;;;;;;;12.57;1.70;;;7.40;99.90;;;;;;5014976;28;20128;-80
2023/11/14 07:45:27;;;;;;;15.63;2.40;;;7.40;99.90;;;;;;5039588;28;20053;-79
2023/11/14 07:47:56;;;;;;;11.57;2.05;;;7.40;99.90;;;;;;5036584;28;20026;-81
2023/11/14 07:50:22;;;;;;;14.48;2.38;;;7.40;99.90;;;;;;5031106;28;20097;-82
2023/11/14 07:52:47;;;;;;;11.35;2.45;;;7.50;99.90;;;;;;5044844;28;20036;-81
2023/11/14 07:55:13;;;;;;;18.58;2.60;;;7.50;99.90;;;;;;5029205;28;20030;-82
2023/11/14 07:57:39;;;;;;;12.15;1.92;;;7.40;99.90;;;;;;5032336;28;20133;-81
2023/11/14 08:00:07;;;;;;;24.27;2.72;;;7.50;99.90;;;;;;5040420;28;20028;-82
2023/11/14 08:02:38;;;;;;;13.02;2.47;;;7.50;99.90;;;;;;5038177;28;20076;-81
2023/11/14 08:05:04;;;;;;;11.85;2.00;;;7.50;99.90;;;;;;5032347;28;20037;-81
2023/11/14 08:07:30;;;;;;;17.50;2.83;;;7.50;99.90;;;;;;5046746;28;20410;-82
2023/11/14 08:09:56;;;;;;;15.55;2.85;;;7.50;99.90;;;;;;5030630;28;20037;-81
2023/11/14 08:12:22;;;;;;;20.17;2.75;;;7.50;99.90;;;;;;5036644;28;20567;-82
2023/11/14 08:14:49;;;;;;;18.77;2.80;;;7.50;99.90;;;;;;5032916;28;20116;-81
2023/11/14 08:17:17;;;;;;;12.82;2.28;;;7.50;99.90;;;;;;5015873;28;20119;-82
2023/11/14 08:19:46;;;;;;;19.40;2.42;;;7.50;99.90;;;;;;5054949;28;20411;-82
2023/11/14 08:22:12;;;;;;;21.92;2.58;;;7.60;99.90;;;;;;5033265;28;20052;-80
2023/11/14 08:24:38;;;;;;;15.10;2.17;;;7.60;99.90;;;;;;5035214;28;20637;-81
2023/11/14 08:27:07;;;;;;;15.82;2.55;;;7.60;99.90;;;;;;5029789;28;20326;-81
2023/11/14 08:29:38;;;;;;;16.40;2.55;;;7.60;99.90;;;;;;5027915;28;20399;-82
2023/11/14 08:32:05;;;;;;;15.18;2.03;;;7.70;99.90;;;;;;5040340;28;20038;-82
2023/11/14 08:34:31;;;;;;;12.32;2.75;;;7.80;99.90;;;;;;5042188;28;20064;-82
2023/11/14 08:36:56;;;;;;;24.15;3.22;;;7.80;99.90;;;;;;5029056;28;20038;-82
2023/11/14 08:39:27;;;;;;;17.33;3.45;;;7.90;99.90;;;;;;5070548;28;20009;-81
2023/11/14 08:41:53;;;;;;;17.80;2.95;;;8.00;99.90;;;;;;5060650;28;20080;-79
2023/11/14 08:44:19;;;;;;;13.43;2.58;;;8.00;99.90;;;;;;5060362;28;20022;-80
2023/11/14 08:46:45;;;;;;;21.52;3.55;;;8.10;99.90;;;;;;5030411;28;20045;-80
2023/11/14 08:49:11;;;;;;;15.15;2.50;;;8.20;99.90;;;;;;5050692;28;20117;-80
2023/11/14 08:51:38;;;;;;;21.65;2.95;;;8.20;99.90;;;;;;5054136;28;20037;-80
2023/11/14 08:54:04;;;;;;;20.92;3.00;;;8.20;99.90;;;;;;5041699;28;20049;-79
2023/11/14 08:56:30;;;;;;;12.38;3.03;;;8.30;99.90;;;;;;5038377;28;20052;-80
2023/11/14 08:58:57;;;;;;;10.35;2.30;;;8.40;99.90;;;;;;5038802;28;20036;-79
2023/11/14 09:07:26;;;;;;;11.20;2.70;;;8.40;99.90;;;;;;4983909;28;20054;-77
2023/11/14 09:09:52;;;;;;;20.70;3.05;;;8.50;99.90;;;;;;4983586;28;20518;-78
2023/11/14 09:12:19;;;;;;;16.83;2.75;;;8.60;99.90;;;;;;4989693;28;20026;-76
2023/11/14 09:14:45;;;;;;;12.40;3.05;;;8.60;99.90;;;;;;4983700;28;20057;-77
2023/11/14 09:17:31;;;;;;;15.60;3.00;;;8.70;99.90;;;;;;4988982;28;20542;-77
2023/11/14 09:19:57;;;;;;;14.43;3.70;;;8.70;99.90;;;;;;5004644;28;20026;-78
2023/11/14 09:22:25;;;;;;;17.08;2.95;;;8.70;99.90;;;;;;4972857;28;20451;-78
2023/11/14 09:24:51;;;;;;;13.90;2.92;;;8.80;99.90;;;;;;4990469;28;20030;-77
2023/11/14 09:27:17;;;;;;;11.35;2.83;;;8.80;99.90;;;;;;4993697;28;20469;-77
2023/11/14 09:29:43;;;;;;;17.20;2.83;;;8.80;99.90;;;;;;4995251;28;20085;-78
2023/11/14 09:32:09;;;;;;;20.48;2.95;;;8.80;99.90;;;;;;4992165;28;20031;-77
2023/11/14 09:34:35;;;;;;;14.90;3.28;;;8.80;99.90;;;;;;4987957;28;20054;-78
2023/11/14 09:37:04;;;;;;;10.82;2.55;;;8.80;99.90;;;;;;4991148;28;20046;-78
2023/11/14 09:39:31;;;;;;;12.80;2.28;;;8.80;99.90;;;;;;4992750;28;20035;-78
2023/11/14 09:41:57;;;;;;;12.02;2.85;;;8.90;99.90;;;;;;4992969;28;20030;-77
2023/11/14 09:44:26;;;;;;;9.30;2.70;;;8.90;99.90;;;;;;4989007;28;20512;-78
2023/11/14 09:46:52;;;;;;;17.92;2.90;;;8.90;99.90;;;;;;4993591;28;20037;-75
2023/11/14 09:49:18;;;;;;;16.23;3.05;;;9.00;99.90;;;;;;5018154;23;20045;-77
2023/11/14 09:51:49;;;;;;;8.27;2.53;;;9.00;99.90;;;;;;5035603;28;20038;-78
2023/11/14 09:54:16;;;;;;;11.82;2.70;;;9.00;99.90;;;;;;5029605;28;20555;-77
2023/11/14 09:56:47;;;;;;;15.00;2.50;;;9.00;99.90;;;;;;5032580;28;20014;-77
2023/11/14 09:59:13;;;;;;;17.80;3.47;;;9.10;99.90;;;;;;5054246;28;20029;-77
2023/11/14 10:01:40;;;;;;;12.52;3.03;;;9.10;99.90;;;;;;5051237;28;20033;-77
2023/11/14 10:04:06;;;;;;;13.80;2.92;;;9.20;99.90;;;;;;5054671;28;20047;-77
2023/11/14 10:06:41;;;;;;;12.15;2.75;;;9.20;99.90;;;;;;5052534;28;20106;-78
2023/11/14 10:09:16;;;;;;;13.23;3.00;;;9.20;99.90;;;;;;5034363;28;20398;-77
2023/11/14 10:11:46;;;;;;;15.52;2.15;;;9.20;99.90;;;;;;5071902;28;20041;-77
2023/11/14 10:14:13;;;;;;;12.90;2.95;;;9.20;99.90;;;;;;5057858;28;20032;-78
2023/11/14 10:16:39;;;;;;;11.98;2.30;;;9.20;99.90;;;;;;5054704;28;20378;-77
2023/11/14 10:19:14;;;;;;;5.72;2.13;;;9.20;99.90;;;;;;5051955;28;20029;-77
2023/11/14 10:21:41;;;;;;;14.02;2.58;;;9.20;99.90;;;;;;5051044;28;20483;-77
2023/11/14 10:24:16;;;;;;;11.70;2.25;;;9.30;99.90;;;;;;5045540;28;20127;-76
2023/11/14 10:26:58;;;;;;;10.23;2.17;;;9.30;99.90;;;;;;5049257;28;20037;-77
2023/11/14 10:29:23;;;;;;;15.48;2.67;;;9.30;99.90;;;;;;5041054;28;20403;-78
2023/11/14 10:31:51;;;;;;;9.73;2.60;;;9.30;99.90;;;;;;5051115;28;20025;-77
2023/11/14 10:34:28;;;;;;;13.98;4.15;;;9.30;99.90;;;;;;5051869;28;20021;-78
2023/11/14 10:36:56;;;;;;;15.63;2.55;;;9.30;99.90;;;;;;5049871;28;20033;-77
2023/11/14 10:39:23;;;;;;;14.98;2.45;;;9.30;99.90;;;;;;5050460;28;20040;-77
2023/11/14 10:41:49;;;;;;;11.55;2.67;;;9.40;99.90;;;;;;5050774;28;20025;-76
2023/11/14 10:44:16;;;;;;;12.43;2.00;;;9.40;99.90;;;;;;5047806;28;20492;-76
2023/11/14 10:46:54;;;;;;;13.52;2.30;;;9.40;99.90;;;;;;5040911;28;20127;-77
2023/11/14 10:49:23;;;;;;;14.45;2.45;;;9.50;99.90;;;;;;5043739;28;20518;-77
2023/11/14 10:51:50;;;;;;;12.95;2.05;;;9.50;99.90;;;;;;5044453;28;20032;-77
2023/11/14 10:54:17;;;;;;;10.18;2.70;;;9.50;99.90;;;;;;5049284;28;20021;-77
2023/11/14 10:56:44;;;;;;;13.52;2.50;;;9.50;99.90;;;;;;5052578;28;20494;-77
2023/11/14 10:59:13;;;;;;;10.27;2.20;;;9.50;99.90;;;;;;5044583;28;20634;-79
2023/11/14 11:01:46;;;;;;;10.00;2.30;;;9.50;99.90;;;;;;5048929;28;20056;-78
2023/11/14 11:04:16;;;;;;;15.02;3.10;;;9.50;99.90;;;;;;5043207;28;20041;-77
2023/11/14 11:06:43;;;;;;;7.40;1.85;;;9.50;99.90;;;;;;5042329;28;20535;-78
2023/11/14 11:09:10;;;;;;;8.95;2.63;;;9.60;99.90;;;;;;5036469;28;20025;-77
2023/11/14 11:11:51;;;;;;;9.68;2.45;;;9.50;99.90;;;;;;5046717;28;20059;-77
2023/11/14 11:14:19;;;;;;;11.90;2.33;;;9.50;99.90;;;;;;5041409;28;20485;-77
2023/11/14 11:16:47;;;;;;;12.48;2.58;;;9.50;99.90;;;;;;5042594;28;20032;-78
2023/11/14 11:19:25;;;;;;;13.95;3.03;;;9.50;99.90;;;;;;5041854;28;20417;-77
2023/11/14 11:22:01;;;;;;;10.45;2.08;;;9.50;99.90;;;;;;5042586;28;20037;-77
2023/11/14 11:24:28;;;;;;;14.88;2.78;;;9.50;99.90;;;;;;5043087;28;20025;-78
2023/11/14 11:27:05;;;;;;;13.93;2.50;;;9.50;99.90;;;;;;5044251;28;20388;-77
2023/11/14 11:29:50;;;;;;;13.10;2.20;;;9.50;99.90;;;;;;5039990;28;20100;-77
2023/11/14 11:32:23;;;;;;;12.15;2.50;;;9.40;99.90;;;;;;5044853;28;20021;-77
2023/11/14 11:35:22;;;;;;;17.65;2.60;;;9.40;99.90;;;;;;5045140;28;20040;-78
2023/11/14 11:37:56;;;;;;;14.75;2.60;;;9.40;99.90;;;;;;5049962;28;20432;-78
2023/11/14 11:40:32;;;;;;;11.73;2.47;;;9.30;99.90;;;;;;5053068;28;20080;-77
2023/11/14 11:43:16;;;;;;;11.15;1.88;;;9.20;99.90;;;;;;5049882;28;20025;-77
2023/11/14 11:46:01;;;;;;;12.80;2.33;;;9.30;99.90;;;;;;5052096;28;20044;-78
2023/11/14 11:48:34;;;;;;;14.13;2.20;;;9.20;99.90;;;;;;5050319;28;20029;-78
2023/11/14 11:51:20;;;;;;;9.68;1.90;;;9.20;99.90;;;;;;5050062;28;20135;-78
2023/11/14 11:53:49;;;;;;;9.77;1.77;;;9.20;99.90;;;;;;5046946;28;20610;-77
2023/11/14 11:56:36;;;;;;;10.57;2.33;;;9.20;99.90;;;;;;5037501;28;20098;-77
2023/11/14 11:59:03;;;;;;;11.00;2.42;;;9.20;99.90;;;;;;5041074;28;20041;-78
2023/11/14 12:01:30;;;;;;;8.90;1.70;;;9.20;99.90;;;;;;5041348;28;20025;-77
2023/11/14 12:04:02;;;;;;;12.60;2.05;;;9.20;99.90;;;;;;5041909;28;20112;-77
2023/11/14 12:06:29;;;;;;;6.90;1.88;;;9.20;99.90;;;;;;5048047;28;20036;-77
2023/11/14 12:08:55;;;;;;;9.52;1.85;;;9.30;99.90;;;;;;5043258;28;20043;-77
2023/11/14 12:11:24;;;;;;;9.65;2.00;;;9.30;99.90;;;;;;5047838;28;20036;-77
2023/11/14 12:13:53;;;;;;;9.60;1.85;;;9.40;99.90;;;;;;5047572;28;20024;-77
2023/11/14 12:16:21;;;;;;;7.07;2.13;;;9.40;99.90;;;;;;5048150;28;20091;-77
2023/11/14 12:18:48;;;;;;;9.55;1.90;;;9.40;99.90;;;;;;5046468;28;20079;-77
2023/11/14 12:21:16;;;;;;;11.10;2.33;;;9.40;99.90;;;;;;5048076;28;20021;-77
2023/11/14 12:23:43;;;;;;;12.02;2.08;;;9.40;99.90;;;;;;5048119;28;20090;-77
2023/11/14 12:26:09;;;;;;;11.05;1.75;;;9.50;99.90;;;;;;5046754;28;20104;-77
2023/11/14 12:28:39;;;;;;;13.00;3.13;;;9.50;99.90;;;;;;5043084;28;20049;-77
2023/11/14 12:31:08;;;;;;;15.40;1.90;;;9.50;99.90;;;;;;5041529;28;20402;-77
2023/11/14 12:33:44;;;;;;;10.15;2.28;;;9.50;99.90;;;;;;5044541;28;20057;-77
2023/11/14 12:36:24;;;;;;;7.53;1.90;;;9.60;99.90;;;;;;5046365;28;20367;-77
2023/11/14 12:38:50;;;;;;;9.13;1.88;;;9.60;99.90;;;;;;5046622;28;20043;-78
2023/11/14 12:41:19;;;;;;;9.25;1.85;;;9.60;99.90;;;;;;5047284;28;20382;-77
2023/11/14 12:43:49;;;;;;;10.05;1.95;;;9.70;99.90;;;;;;5044062;28;20117;-77
2023/11/14 12:46:23;;;;;;;12.40;2.50;;;9.70;99.90;;;;;;5049309;28;20033;-77
2023/11/14 12:49:12;;;;;;;7.22;1.60;;;9.70;99.90;;;;;;5047036;28;20116;-77
2023/11/14 12:51:52;;;;;;;7.60;1.95;;;9.70;99.90;;;;;;5045660;28;20041;-77
2023/11/14 12:54:22;;;;;;;8.05;2.08;;;9.80;99.90;;;;;;5043063;28;20548;-77
2023/11/14 12:56:49;;;;;;;10.43;2.08;;;9.80;99.90;;;;;;5045510;28;20033;-77
2023/11/14 12:59:16;;;;;;;11.05;2.10;;;9.70;99.90;;;;;;5039704;28;20052;-77
2023/11/14 13:01:44;;;;;;;20.85;2.00;;;9.80;99.90;;;;;;5045514;28;20038;-77